Time;durP1;ratioP1;P1;durP2;ratioP2;P2;SDS_P1;SDS_P2;PMS_P1;PMS_P2;Temp;Humidity;BMP_temperature;BMP_pressure;BME280_temperature;BME280_humidity;BME280_pressure;Samples;Min_cycle;Max_cycle;Signal;HPM_P1;HPM_P2
2021/12/17 00:01:11;;;;;;;;;;;;;;;26.78;58.83;97683.84;605054;234;65102;-68
2021/12/17 00:03:44;;;;;;;;;;;;;;;26.78;59.13;97689.23;605059;234;68505;-67
2021/12/17 00:06:16;;;;;;;;;;;;;;;26.75;54.72;97690.61;604977;233;66345;-68
2021/12/17 00:08:44;;;;;;;;;;;;;;;26.78;55.08;97683.84;604934;234;63042;-67
2021/12/17 00:11:12;;;;;;;;;;;;;;;26.76;58.62;97686.84;605047;234;68680;-67
2021/12/17 00:13:42;;;;;;;;;;;;;;;26.75;54.00;97682.52;604981;234;66982;-67
2021/12/17 00:16:17;;;;;;;;;;;;;;;26.73;56.29;97682.01;605084;234;65139;-68
2021/12/17 00:19:10;;;;;;;;;;;;;;;26.74;54.02;97689.02;604921;234;68681;-68
2021/12/17 00:48:50;;;;;;;;;;;;;;;26.62;56.83;97702.13;597523;234;65407;-66
2021/12/17 00:54:08;;;;;;;;;;;;;;;26.62;57.14;97690.55;605024;234;68805;-66
2021/12/17 00:56:36;;;;;;;;;;;;;;;26.61;54.23;97689.75;605001;234;65272;-67
2021/12/17 00:59:04;;;;;;;;;;;;;;;26.62;59.68;97691.34;606183;234;66367;-67
2021/12/17 01:01:31;;;;;;;;;;;;;;;26.60;58.48;97687.33;606497;234;68727;-67
2021/12/17 01:03:59;;;;;;;;;;;;;;;26.59;55.98;97683.05;606425;234;65067;-67
2021/12/17 01:06:27;;;;;;;;;;;;;;;26.56;54.58;97693.31;606412;234;68763;-67
2021/12/17 01:08:55;;;;;;;;;;;;;;;26.56;57.19;97681.73;606452;234;66364;-67
2021/12/17 01:11:25;;;;;;;;;;;;;;;26.54;55.24;97684.70;606415;234;64443;-67
2021/12/17 01:14:04;;;;;;;;;;;;;;;26.55;59.03;97683.63;605991;234;51010;-67
2021/12/17 01:16:51;;;;;;;;;;;;;;;26.53;58.83;97679.62;606584;234;44507;-67
2021/12/17 01:24:58;;;;;;;;;;;;;;;26.53;54.41;97675.03;593842;234;49239;-66
2021/12/17 01:35:51;;;;;;;;;;;;;;;26.48;54.31;97644.62;606118;234;43516;-69
2021/12/17 01:41:12;;;;;;;;;;;;;;;26.44;59.05;97630.94;606437;234;68594;-70
2021/12/17 01:43:31;;;;;;;;;;;;;;;26.43;55.80;97620.44;605928;234;65206;-69
2021/12/17 01:46:00;;;;;;;;;;;;;;;26.43;55.95;97628.52;606449;234;69690;-70
2021/12/17 01:48:36;;;;;;;;;;;;;;;26.42;57.71;97629.63;606443;234;66564;-69
2021/12/17 01:56:38;;;;;;;;;;;;;;;26.40;58.87;97623.72;606507;234;66162;-70
2021/12/17 01:59:22;;;;;;;;;;;;;;;26.35;58.23;97630.80;606019;234;65255;-67
2021/12/17 02:01:46;;;;;;;;;;;;;;;26.32;60.60;97635.94;606364;234;66550;-67
2021/12/17 02:04:14;;;;;;;;;;;;;;;26.30;60.93;97641.64;606437;234;68828;-67
2021/12/17 02:06:42;;;;;;;;;;;;;;;26.33;58.29;97641.05;606464;234;65831;-68
2021/12/17 02:09:21;;;;;;;;;;;;;;;26.32;60.26;97642.12;606480;234;67094;-68
2021/12/17 02:12:15;;;;;;;;;;;;;;;26.33;58.46;97634.88;605906;234;68345;-67
2021/12/17 02:19:58;;;;;;;;;;;;;;;26.27;60.68;97631.45;606456;234;66543;-66
2021/12/17 02:32:33;;;;;;;;;;;;;;;26.23;60.64;97640.39;606413;234;68740;-69
2021/12/17 02:37:43;;;;;;;;;;;;;;;26.17;57.18;97634.27;606431;234;65068;-69
2021/12/17 02:45:32;;;;;;;;;;;;;;;26.18;59.78;97649.33;606474;234;65321;-70
2021/12/17 02:48:01;;;;;;;;;;;;;;;26.16;60.42;97643.42;606442;234;69567;-70
2021/12/17 02:50:30;;;;;;;;;;;;;;;26.16;62.43;97639.94;606395;234;69229;-70
2021/12/17 02:52:58;;;;;;;;;;;;;;;26.13;60.41;97642.11;606424;234;65118;-70
2021/12/17 02:55:27;;;;;;;;;;;;;;;26.15;63.59;97628.36;606389;234;68899;-70
2021/12/17 02:57:55;;;;;;;;;;;;;;;26.13;61.44;97627.84;605914;234;66753;-67
2021/12/17 03:00:23;;;;;;;;;;;;;;;26.12;62.88;97623.56;605040;234;62881;-70
2021/12/17 03:02:51;;;;;;;;;;;;;;;26.10;61.75;97621.14;604996;234;66673;-70
2021/12/17 03:05:18;;;;;;;;;;;;;;;26.09;61.77;97621.45;605014;234;68732;-70
2021/12/17 03:07:47;;;;;;;;;;;;;;;26.08;62.57;97609.88;605015;234;63022;-70
2021/12/17 03:10:15;;;;;;;;;;;;;;;26.08;61.09;97607.19;604996;234;69105;-70
2021/12/17 03:12:47;;;;;;;;;;;;;;;26.05;62.06;97602.35;605067;234;68894;-70
2021/12/17 03:15:23;;;;;;;;;;;;;;;26.07;61.53;97605.56;604945;233;65068;-70
2021/12/17 03:23:32;;;;;;;;;;;;;;;26.01;57.17;97600.55;605003;234;65367;-67
2021/12/17 03:26:01;;;;;;;;;;;;;;;26.02;62.99;97602.94;605023;234;67422;-67
2021/12/17 03:28:29;;;;;;;;;;;;;;;26.02;62.30;97597.55;604833;234;69186;-67
2021/12/17 03:30:57;;;;;;;;;;;;;;;26.01;61.65;97595.95;605029;234;65487;-67
2021/12/17 03:33:25;;;;;;;;;;;;;;;26.00;62.46;97598.92;605047;234;66535;-67
2021/12/17 03:35:53;;;;;;;;;;;;;;;25.99;60.71;97587.36;604990;234;68945;-68
2021/12/17 03:38:21;;;;;;;;;;;;;;;26.00;58.25;97577.37;605015;234;62910;-67
2021/12/17 03:40:52;;;;;;;;;;;;;;;25.99;62.15;97581.97;604947;234;69403;-67
2021/12/17 03:43:29;;;;;;;;;;;;;;;25.95;62.01;97578.27;604681;234;46507;-67
2021/12/17 03:45:51;;;;;;;;;;;;;;;25.95;63.63;97582.86;604724;234;65139;-68
2021/12/17 03:48:19;;;;;;;;;;;;;;;25.95;61.98;97572.09;604993;234;68741;-67
2021/12/17 03:50:47;;;;;;;;;;;;;;;25.95;60.38;97582.86;604967;234;66523;-67
2021/12/17 03:53:14;;;;;;;;;;;;;;;25.91;58.15;97572.64;605019;234;65791;-69
2021/12/17 03:55:42;;;;;;;;;;;;;;;25.91;63.45;97580.72;605068;234;68858;-70
2021/12/17 03:58:09;;;;;;;;;;;;;;;25.93;62.59;97587.73;604997;234;66554;-67
2021/12/17 04:00:38;;;;;;;;;;;;;;;25.90;63.73;97581.03;605025;234;42632;-68
2021/12/17 04:03:06;;;;;;;;;;;;;;;25.88;63.41;97581.30;605018;234;68818;-67
2021/12/17 04:05:35;;;;;;;;;;;;;;;25.90;63.64;97578.34;604379;234;49068;-67
2021/12/17 04:08:21;;;;;;;;;;;;;;;25.85;62.44;97571.11;605119;234;39077;-68
2021/12/17 04:11:05;;;;;;;;;;;;;;;25.87;57.54;97574.33;602400;234;49893;-67
2021/12/17 04:13:36;;;;;;;;;;;;;;;25.89;57.55;97565.94;605056;234;71485;-67
2021/12/17 04:16:08;;;;;;;;;;;;;;;25.88;62.99;97562.45;605036;234;65170;-68
2021/12/17 04:18:36;;;;;;;;;;;;;;;25.83;62.96;97551.75;605022;234;68793;-68
2021/12/17 04:21:09;;;;;;;;;;;;;;;25.84;63.09;97547.19;605012;234;66068;-68
2021/12/17 04:23:33;;;;;;;;;;;;;;;25.82;63.81;97552.02;604906;234;65409;-67
2021/12/17 04:26:01;;;;;;;;;;;;;;;25.79;63.42;97545.33;605079;234;65918;-67
2021/12/17 04:28:29;;;;;;;;;;;;;;;25.82;62.90;97533.97;605017;234;69159;-68
2021/12/17 04:30:58;;;;;;;;;;;;;;;25.80;61.09;97544.22;604943;234;46498;-68
2021/12/17 04:33:27;;;;;;;;;;;;;;;25.81;63.31;97536.94;604984;234;68975;-67
2021/12/17 04:35:57;;;;;;;;;;;;;;;25.79;58.30;97534.55;605030;234;68765;-67
2021/12/17 04:38:27;;;;;;;;;;;;;;;25.79;63.46;97529.17;605059;234;65467;-68
2021/12/17 04:41:01;;;;;;;;;;;;;;;25.79;62.77;97531.06;605009;232;66804;-67
2021/12/17 04:43:46;;;;;;;;;;;;;;;25.77;61.80;97523.27;604670;234;68721;-68
2021/12/17 04:46:29;;;;;;;;;;;;;;;25.76;59.05;97524.37;604531;234;65468;-67
2021/12/17 04:59:37;;;;;;;;;;;;;;;25.72;63.73;97485.64;605040;234;67386;-67
2021/12/17 05:02:05;;;;;;;;;;;;;;;25.70;59.09;97482.47;604965;232;65656;-67
2021/12/17 05:04:34;;;;;;;;;;;;;;;25.69;58.49;97476.26;604621;234;47137;-68
2021/12/17 05:07:03;;;;;;;;;;;;;;;25.68;63.62;97479.26;605000;234;69281;-67
2021/12/17 05:09:39;;;;;;;;;;;;;;;25.66;64.48;97470.66;605017;234;63112;-70
2021/12/17 05:20:44;;;;;;;;;;;;;;;25.64;58.48;97480.91;605008;234;68645;-70
2021/12/17 05:23:00;;;;;;;;;;;;;;;25.65;60.95;97479.84;604149;234;67819;-70
2021/12/17 05:25:29;;;;;;;;;;;;;;;25.66;63.91;97482.23;597458;234;63124;-70
2021/12/17 05:28:01;;;;;;;;;;;;;;;25.65;61.41;97475.25;604809;234;69479;-70
2021/12/17 05:30:28;;;;;;;;;;;;;;;25.65;59.80;97479.84;604786;234;67614;-70
2021/12/17 05:32:56;;;;;;;;;;;;;;;25.65;64.71;97480.64;604869;234;63166;-70
2021/12/17 05:35:26;;;;;;;;;;;;;;;25.65;64.69;97485.22;604743;234;68883;-69
2021/12/17 05:37:55;;;;;;;;;;;;;;;25.62;64.26;97491.19;604784;234;68748;-70
2021/12/17 05:40:23;;;;;;;;;;;;;;;25.65;64.10;97495.98;604824;234;62900;-67
2021/12/17 05:42:55;;;;;;;;;;;;;;;25.63;63.24;97498.95;604816;234;66452;-68
2021/12/17 05:46:09;;;;;;;;;;;;;;;25.64;66.10;97500.55;604838;234;47388;-67
2021/12/17 05:47:51;;;;;;;;;;;;;;;25.65;64.57;97498.69;602194;234;65872;-67
2021/12/17 05:50:18;;;;;;;;;;;;;;;25.63;64.04;97508.93;604755;234;69017;-67
2021/12/17 05:52:46;;;;;;;;;;;;;;;25.64;64.32;97510.52;604817;234;68578;-67
2021/12/17 05:55:14;;;;;;;;;;;;;;;25.64;64.95;97505.93;604793;234;62899;-69
2021/12/17 05:57:42;;;;;;;;;;;;;;;25.67;65.55;97501.86;605209;234;68714;-69
2021/12/17 06:00:11;;;;;;;;;;;;;;;25.67;64.69;97508.07;606164;234;66572;-70
2021/12/17 06:02:40;;;;;;;;;;;;;;;25.68;64.96;97511.56;606208;234;47051;-70
2021/12/17 06:05:08;;;;;;;;;;;;;;;25.69;66.46;97518.53;606209;234;69164;-70
2021/12/17 06:07:37;;;;;;;;;;;;;;;25.71;65.96;97516.36;606060;234;67228;-69
2021/12/17 06:10:09;;;;;;;;;;;;;;;25.71;64.87;97516.36;606346;233;42590;-70
2021/12/17 06:12:38;;;;;;;;;;;;;;;25.76;62.92;97523.58;606364;234;47207;-70
2021/12/17 06:15:07;;;;;;;;;;;;;;;25.78;61.67;97526.75;606459;234;69113;-70
2021/12/17 06:17:35;;;;;;;;;;;;;;;25.79;64.00;97531.86;606398;234;63842;-70
2021/12/17 06:20:04;;;;;;;;;;;;;;;25.82;63.00;97527.80;606438;234;69058;-70
2021/12/17 06:22:31;;;;;;;;;;;;;;;25.88;63.32;97545.50;606419;234;68432;-69
2021/12/17 06:25:00;;;;;;;;;;;;;;;25.89;59.08;97534.45;606502;234;42640;-70
2021/12/17 06:27:28;;;;;;;;;;;;;;;25.94;60.06;97535.46;606442;234;68431;-69
2021/12/17 06:29:57;;;;;;;;;;;;;;;25.97;57.46;97540.27;606437;234;69086;-70
2021/12/17 06:32:25;;;;;;;;;;;;;;;25.99;60.47;97541.58;606436;234;65099;-70
2021/12/17 06:34:53;;;;;;;;;;;;;;;26.01;62.96;97530.52;606442;232;68826;-69
2021/12/17 06:37:20;;;;;;;;;;;;;;;26.00;59.93;97523.52;606428;234;69168;-70
2021/12/17 06:39:49;;;;;;;;;;;;;;;26.04;57.73;97524.55;606468;234;62579;-70
2021/12/17 06:42:16;;;;;;;;;;;;;;;26.04;62.32;97522.66;606391;234;68960;-70
2021/12/17 06:44:46;;;;;;;;;;;;;;;26.05;60.39;97515.37;606411;234;68474;-69
2021/12/17 06:47:34;;;;;;;;;;;;;;;26.08;63.14;97515.61;606446;234;63058;-70
2021/12/17 07:05:56;;;;;;;;;;;;;;;26.15;61.09;97506.35;605098;234;40306;-70
2021/12/17 07:23:10;;;;;;;;;;;;;;;26.21;59.79;97491.70;605095;234;66278;-68
2021/12/17 07:33:45;;;;;;;;;;;;;;;26.25;59.28;97474.66;604447;234;46058;-60
2021/12/17 07:36:22;;;;;;;;;;;;;;;26.26;59.24;97468.17;604440;233;47371;-63
2021/12/17 07:38:51;;;;;;;;;;;;;;;26.27;58.86;97475.17;604894;233;48470;-66
2021/12/17 07:41:40;;;;;;;;;;;;;;;26.27;58.36;97477.87;605047;232;50795;-66
2021/12/17 07:44:13;;;;;;;;;;;;;;;26.26;58.47;97470.87;604346;234;43509;-63
2021/12/17 07:46:42;;;;;;;;;;;;;;;26.24;57.63;97469.56;604370;234;47435;-63
2021/12/17 07:49:10;;;;;;;;;;;;;;;26.23;57.67;97471.45;604968;234;67184;-62
2021/12/17 07:51:37;;;;;;;;;;;;;;;26.25;57.70;97479.26;604987;234;64864;-62
2021/12/17 07:54:07;;;;;;;;;;;;;;;26.25;57.82;97479.26;604807;234;69499;-63
2021/12/17 07:56:38;;;;;;;;;;;;;;;26.27;57.38;97475.17;604960;234;66889;-71
2021/12/17 07:59:06;;;;;;;;;;;;;;;26.36;55.28;97478.00;604992;234;65650;-68
2021/12/17 08:01:35;;;;;;;;;;;;;;;26.41;55.44;97471.70;604913;234;68678;-70
2021/12/17 08:04:04;;;;;;;;;;;;;;;26.43;54.47;97473.01;604809;234;66505;-67
2021/12/17 08:06:52;;;;;;;;;;;;;;;26.42;54.93;97473.32;604703;234;47656;-63
2021/12/17 08:09:21;;;;;;;;;;;;;;;26.46;57.05;97471.62;604939;234;46841;-61
2021/12/17 08:11:55;;;;;;;;;;;;;;;26.47;55.81;97476.73;604973;234;66630;-61
2021/12/17 08:14:19;;;;;;;;;;;;;;;26.48;54.99;97469.44;604807;234;63808;-61
2021/12/17 08:25:13;;;;;;;;;;;;;;;26.55;56.75;97475.28;604961;234;69638;-68
2021/12/17 08:32:46;;;;;;;;;;;;;;;26.61;54.87;97482.17;604811;234;48317;-67
2021/12/17 08:35:16;;;;;;;;;;;;;;;26.62;56.19;97486.46;604684;233;48451;-64
2021/12/17 08:37:43;;;;;;;;;;;;;;;26.53;57.19;97472.88;604866;234;63699;-65
2021/12/17 08:40:11;;;;;;;;;;;;;;;26.52;58.52;97473.19;605008;234;68833;-66
2021/12/17 08:42:43;;;;;;;;;;;;;;;26.45;55.76;97468.13;604653;234;47285;-65
2021/12/17 08:45:11;;;;;;;;;;;;;;;26.53;53.73;97466.69;604736;234;65661;-65
2021/12/17 08:47:50;;;;;;;;;;;;;;;26.59;54.51;97468.19;604239;234;48664;-64
2021/12/17 08:50:30;;;;;;;;;;;;;;;26.63;54.53;97462.99;604608;234;47311;-60
2021/12/17 08:52:58;;;;;;;;;;;;;;;26.65;55.30;97469.69;605022;234;65022;-66
2021/12/17 08:55:25;;;;;;;;;;;;;;;26.66;55.25;97473.21;604950;234;66169;-67
2021/12/17 08:57:53;;;;;;;;;;;;;;;26.65;54.75;97464.30;606124;231;69071;-66
2021/12/17 09:00:21;;;;;;;;;;;;;;;26.65;56.69;97466.99;608166;233;64936;-68
2021/12/17 09:02:59;;;;;;;;;;;;;;;26.65;54.64;97458.11;602441;233;48535;-65
2021/12/17 09:05:29;;;;;;;;;;;;;;;26.67;55.19;97451.33;607338;233;49832;-63
2021/12/17 09:07:56;;;;;;;;;;;;;;;26.67;55.46;97450.53;608492;233;65098;-63
2021/12/17 09:10:29;;;;;;;;;;;;;;;26.63;57.41;97439.56;607640;233;48764;-65
2021/12/17 09:12:57;;;;;;;;;;;;;;;26.61;57.30;97438.25;608354;233;68973;-65
2021/12/17 09:15:25;;;;;;;;;;;;;;;26.59;57.05;97430.45;608537;233;63711;-62
2021/12/17 09:17:59;;;;;;;;;;;;;;;26.59;56.84;97435.84;608024;233;47337;-65
2021/12/17 09:20:27;;;;;;;;;;;;;;;26.60;57.27;97423.98;608409;233;69142;-64
2021/12/17 09:22:55;;;;;;;;;;;;;;;26.60;56.90;97423.98;608385;233;63716;-67
2021/12/17 09:25:24;;;;;;;;;;;;;;;26.61;55.98;97422.08;608178;233;47416;-65
2021/12/17 09:27:57;;;;;;;;;;;;;;;26.61;56.44;97424.78;608419;233;45583;-65
2021/12/17 09:30:26;;;;;;;;;;;;;;;26.63;57.12;97417.17;607571;233;46316;-65
2021/12/17 09:32:54;;;;;;;;;;;;;;;26.62;56.28;97413.68;608411;233;68433;-65
2021/12/17 09:35:22;;;;;;;;;;;;;;;26.64;57.09;97410.70;608445;233;68508;-64
2021/12/17 09:37:50;;;;;;;;;;;;;;;26.64;56.09;97402.61;608445;233;64682;-65
2021/12/17 09:40:18;;;;;;;;;;;;;;;26.65;56.96;97398.80;608420;233;66808;-64
2021/12/17 09:42:46;;;;;;;;;;;;;;;26.69;53.49;97392.53;608356;233;66407;-67
2021/12/17 09:45:14;;;;;;;;;;;;;;;26.72;53.22;97391.13;608457;233;62802;-66
2021/12/17 09:47:43;;;;;;;;;;;;;;;26.74;53.59;97389.73;608384;233;66514;-67
2021/12/17 09:50:11;;;;;;;;;;;;;;;26.75;53.78;97387.84;608400;233;68786;-69
2021/12/17 09:52:39;;;;;;;;;;;;;;;26.76;53.54;97370.55;608437;233;65123;-67
2021/12/17 09:55:07;;;;;;;;;;;;;;;26.78;52.92;97369.15;608493;233;68682;-66
2021/12/17 09:57:37;;;;;;;;;;;;;;;26.79;53.21;97369.95;607675;233;66317;-67
2021/12/17 10:00:13;;;;;;;;;;;;;;;26.82;54.47;97363.16;605040;234;65050;-65
2021/12/17 10:02:43;;;;;;;;;;;;;;;26.82;53.88;97357.77;604848;234;71434;-65
2021/12/17 10:05:15;;;;;;;;;;;;;;;26.83;54.01;97356.68;604959;234;66432;-65
2021/12/17 10:07:44;;;;;;;;;;;;;;;26.83;53.72;97341.30;604901;234;65083;-64
2021/12/17 10:10:13;;;;;;;;;;;;;;;26.83;54.00;97341.30;605016;234;66581;-65
2021/12/17 10:12:41;;;;;;;;;;;;;;;26.86;54.12;97339.89;605022;234;68640;-65
2021/12/17 10:15:10;;;;;;;;;;;;;;;26.87;54.47;97336.09;604985;234;65053;-66
2021/12/17 10:17:39;;;;;;;;;;;;;;;26.87;53.64;97338.78;605040;234;68861;-65
2021/12/17 10:20:09;;;;;;;;;;;;;;;26.88;55.04;97335.00;604484;234;68008;-64
2021/12/17 10:22:36;;;;;;;;;;;;;;;26.90;54.08;97335.48;604608;234;64916;-66
2021/12/17 10:25:08;;;;;;;;;;;;;;;26.89;54.38;97326.59;604556;234;68496;-66
2021/12/17 10:27:37;;;;;;;;;;;;;;;26.91;53.72;97318.22;604613;234;68620;-65
2021/12/17 10:30:12;;;;;;;;;;;;;;;26.91;53.93;97313.62;604992;234;62762;-66
2021/12/17 10:32:42;;;;;;;;;;;;;;;26.92;53.83;97311.72;605030;234;68499;-66
2021/12/17 10:35:17;;;;;;;;;;;;;;;26.93;53.75;97307.94;605036;234;68466;-66
2021/12/17 10:37:49;;;;;;;;;;;;;;;26.91;53.91;97292.05;604987;234;63015;-65
2021/12/17 10:40:17;;;;;;;;;;;;;;;26.94;53.91;97282.55;604848;234;66048;-66
2021/12/17 10:42:53;;;;;;;;;;;;;;;26.94;53.90;97274.45;604951;234;66369;-66
2021/12/17 10:45:23;;;;;;;;;;;;;;;26.95;53.75;97274.14;604624;234;63053;-66
2021/12/17 10:47:57;;;;;;;;;;;;;;;26.97;54.22;97271.16;604736;234;66108;-64
2021/12/17 10:50:12;;;;;;;;;;;;;;;26.95;53.97;97260.66;604346;234;68749;-65
2021/12/17 10:52:45;;;;;;;;;;;;;;;26.96;53.88;97253.39;604923;234;64997;-66
2021/12/17 10:55:14;;;;;;;;;;;;;;;26.96;54.09;97264.97;604871;234;69129;-66
2021/12/17 10:57:43;;;;;;;;;;;;;;;26.96;54.24;97259.58;605841;233;68696;-66
2021/12/17 11:00:11;;;;;;;;;;;;;;;26.98;53.75;97254.68;608378;233;62997;-65
2021/12/17 11:02:40;;;;;;;;;;;;;;;26.98;54.83;97248.46;608254;233;66780;-64
2021/12/17 11:05:09;;;;;;;;;;;;;;;26.98;54.39;97246.59;606790;230;66678;-65
2021/12/17 11:07:38;;;;;;;;;;;;;;;26.97;54.00;97244.18;608222;233;62639;-65
2021/12/17 11:10:06;;;;;;;;;;;;;;;26.96;53.89;97242.59;601612;235;68773;-65
2021/12/17 11:12:38;;;;;;;;;;;;;;;26.97;53.81;97231.48;608418;233;68737;-65
2021/12/17 11:15:25;;;;;;;;;;;;;;;26.96;54.11;97229.11;608501;233;65105;-65
2021/12/17 11:17:55;;;;;;;;;;;;;;;26.94;53.36;97229.41;608546;233;66648;-62
2021/12/17 11:20:36;;;;;;;;;;;;;;;26.94;54.69;97223.22;608409;233;68775;-62
2021/12/17 11:23:13;;;;;;;;;;;;;;;26.94;53.76;97228.61;608478;233;62775;-62
2021/12/17 11:25:36;;;;;;;;;;;;;;;26.94;54.61;97224.02;601567;235;68506;-62
2021/12/17 11:28:07;;;;;;;;;;;;;;;26.94;54.48;97221.31;601317;236;68701;-62
2021/12/17 11:30:36;;;;;;;;;;;;;;;26.93;54.76;97214.34;608507;233;65034;-63
2021/12/17 11:33:04;;;;;;;;;;;;;;;26.94;55.13;97213.22;608544;233;66456;-63
2021/12/17 11:35:33;;;;;;;;;;;;;;;26.97;55.71;97211.82;608488;233;68296;-64
2021/12/17 11:38:02;;;;;;;;;;;;;;;26.97;55.48;97209.91;608549;233;62932;-62
2021/12/17 11:40:34;;;;;;;;;;;;;;;26.99;55.66;97201.53;601746;234;66180;-62
2021/12/17 11:43:15;;;;;;;;;;;;;;;26.99;55.80;97204.23;608407;233;66597;-63
2021/12/17 11:45:41;;;;;;;;;;;;;;;26.96;55.14;97205.63;601705;234;63644;-62
2021/12/17 11:48:19;;;;;;;;;;;;;;;26.99;56.03;97209.63;608435;233;66276;-62
2021/12/17 11:50:48;;;;;;;;;;;;;;;26.99;56.03;97231.20;608460;233;68537;-61
2021/12/17 11:53:21;;;;;;;;;;;;;;;27.01;56.07;97220.91;607924;233;62679;-61
2021/12/17 11:55:50;;;;;;;;;;;;;;;26.99;56.34;97228.50;608366;233;68377;-62
2021/12/17 11:58:19;;;;;;;;;;;;;;;27.01;56.21;97218.22;606431;233;66265;-61
2021/12/17 12:00:49;;;;;;;;;;;;;;;27.02;55.91;97222.49;604378;234;65822;-61
2021/12/17 12:03:21;;;;;;;;;;;;;;;27.03;56.16;97213.28;604974;234;68255;-63
2021/12/17 12:05:50;;;;;;;;;;;;;;;27.04;56.42;97217.59;605023;234;68304;-60
2021/12/17 12:08:39;;;;;;;;;;;;;;;27.03;56.61;97220.59;598151;237;64934;-61
2021/12/17 12:11:08;;;;;;;;;;;;;;;27.02;56.10;97227.89;604818;234;68612;-66
2021/12/17 12:13:36;;;;;;;;;;;;;;;27.03;55.95;97210.59;605011;234;68518;-64
2021/12/17 12:16:06;;;;;;;;;;;;;;;27.03;55.95;97202.50;604964;234;63667;-64
2021/12/17 12:18:49;;;;;;;;;;;;;;;27.01;56.59;97213.61;604824;234;49132;-65
2021/12/17 12:21:18;;;;;;;;;;;;;;;27.03;56.54;97215.98;604970;234;66169;-65
2021/12/17 12:23:47;;;;;;;;;;;;;;;27.03;56.20;97202.50;604824;234;64917;-65
2021/12/17 12:26:19;;;;;;;;;;;;;;;27.02;56.13;97195.52;604924;234;68501;-65
2021/12/17 12:28:48;;;;;;;;;;;;;;;27.03;55.88;97189.02;604971;234;66421;-66
2021/12/17 12:31:27;;;;;;;;;;;;;;;27.03;56.72;97188.22;604967;234;63605;-67
2021/12/17 12:34:08;;;;;;;;;;;;;;;27.05;56.68;97180.63;604967;234;68288;-66
2021/12/17 12:36:54;;;;;;;;;;;;;;;27.07;56.94;97183.83;604852;232;68438;-64
2021/12/17 12:39:23;;;;;;;;;;;;;;;27.04;56.51;97169.05;604965;234;62823;-64
2021/12/17 12:42:08;;;;;;;;;;;;;;;27.06;56.79;97161.42;604991;234;68597;-64
2021/12/17 12:44:47;;;;;;;;;;;;;;;27.03;56.60;97166.64;605022;234;69325;-65
2021/12/17 12:47:31;;;;;;;;;;;;;;;27.04;56.42;97160.95;604964;234;63017;-66
2021/12/17 12:50:11;;;;;;;;;;;;;;;27.02;56.12;97157.76;605001;234;65961;-65
2021/12/17 12:52:40;;;;;;;;;;;;;;;27.02;56.37;97146.97;604993;234;67986;-64
2021/12/17 12:55:18;;;;;;;;;;;;;;;27.02;56.34;97141.58;605053;234;65262;-64
2021/12/17 12:57:56;;;;;;;;;;;;;;;27.00;56.73;97143.78;606012;233;66222;-66
2021/12/17 13:00:25;;;;;;;;;;;;;;;27.03;57.17;97153.95;608315;233;66575;-66
2021/12/17 13:02:57;;;;;;;;;;;;;;;27.05;57.82;97149.05;601571;235;65375;-61
2021/12/17 13:05:25;;;;;;;;;;;;;;;26.96;54.39;97161.69;608353;233;66195;-63
2021/12/17 13:07:54;;;;;;;;;;;;;;;26.95;54.66;97147.39;608408;230;66368;-64
2021/12/17 13:10:25;;;;;;;;;;;;;;;26.96;55.60;97153.60;608546;233;62753;-66
2021/12/17 13:13:00;;;;;;;;;;;;;;;26.98;55.59;97151.37;608474;233;68325;-65
2021/12/17 13:23:26;;;;;;;;;;;;;;;27.01;55.78;97158.87;601755;235;67414;-67
2021/12/17 13:26:10;;;;;;;;;;;;;;;26.99;55.66;97161.08;601353;236;62784;-65
2021/12/17 13:28:54;;;;;;;;;;;;;;;26.99;55.58;97163.77;608432;233;68876;-67
2021/12/17 13:31:32;;;;;;;;;;;;;;;27.02;55.82;97173.94;608563;233;68373;-66
2021/12/17 13:34:00;;;;;;;;;;;;;;;27.01;55.25;97169.66;608509;233;65301;-67
2021/12/17 13:36:28;;;;;;;;;;;;;;;27.01;55.43;97183.15;608433;233;68501;-64
2021/12/17 13:38:57;;;;;;;;;;;;;;;27.01;55.86;97191.24;608456;233;68288;-64
2021/12/17 13:41:41;;;;;;;;;;;;;;;27.03;56.10;97199.02;608453;233;65254;-64
2021/12/17 13:44:26;;;;;;;;;;;;;;;27.03;55.54;97197.10;608492;233;69254;-64
2021/12/17 13:46:55;;;;;;;;;;;;;;;27.04;55.34;97189.80;608513;233;68238;-65
2021/12/17 13:49:23;;;;;;;;;;;;;;;27.01;55.38;97191.24;608033;233;65270;-65
2021/12/17 13:51:51;;;;;;;;;;;;;;;27.03;55.67;97199.80;608455;233;66119;-65
2021/12/17 13:54:18;;;;;;;;;;;;;;;27.04;56.04;97209.50;608440;233;69166;-64
2021/12/17 13:56:47;;;;;;;;;;;;;;;27.00;55.72;97206.60;608456;233;63023;-66
2021/12/17 13:59:15;;;;;;;;;;;;;;;27.03;55.80;97215.98;608109;233;66222;-67
2021/12/17 14:01:43;;;;;;;;;;;;;;;26.92;54.33;97225.42;608249;233;68648;-67
2021/12/17 14:04:14;;;;;;;;;;;;;;;26.96;55.45;97215.62;607674;233;65188;-62
2021/12/17 14:06:51;;;;;;;;;;;;;;;26.97;56.89;97215.30;607866;233;66803;-61
2021/12/17 14:09:12;;;;;;;;;;;;;;;26.97;57.92;97217.22;601402;235;66050;-63
2021/12/17 14:11:41;;;;;;;;;;;;;;;26.97;57.34;97222.61;601092;235;62714;-63
2021/12/17 14:14:23;;;;;;;;;;;;;;;26.97;56.93;97218.00;601103;236;68515;-63
2021/12/17 14:16:57;;;;;;;;;;;;;;;26.98;57.24;97221.49;601080;236;69583;-61
2021/12/17 14:19:44;;;;;;;;;;;;;;;26.95;56.54;97216.72;608059;233;64935;-60
2021/12/17 14:22:26;;;;;;;;;;;;;;;26.95;57.09;97225.59;608071;233;68544;-60
2021/12/17 14:24:51;;;;;;;;;;;;;;;26.98;56.48;97227.70;599274;236;68502;-67
2021/12/17 14:27:18;;;;;;;;;;;;;;;26.97;54.75;97228.00;599333;236;64686;-67
2021/12/17 14:29:46;;;;;;;;;;;;;;;27.00;54.88;97235.48;599407;236;68483;-68
2021/12/17 14:32:18;;;;;;;;;;;;;;;27.02;55.83;97238.67;599359;236;65913;-67
2021/12/17 14:34:46;;;;;;;;;;;;;;;27.02;55.64;97241.37;598550;236;62973;-67
2021/12/17 14:37:14;;;;;;;;;;;;;;;27.03;55.70;97236.77;599350;236;68094;-67
2021/12/17 14:39:45;;;;;;;;;;;;;;;27.05;56.05;97237.27;599338;236;68110;-68
2021/12/17 14:42:12;;;;;;;;;;;;;;;27.05;56.07;97239.97;599352;236;64930;-68
2021/12/17 14:44:52;;;;;;;;;;;;;;;27.05;55.65;97238.06;599343;236;68475;-68
2021/12/17 14:47:20;;;;;;;;;;;;;;;27.06;55.63;97228.06;599096;236;47918;-69
2021/12/17 15:00:44;;;;;;;;;;;;;;;27.07;56.38;97232.38;608020;233;66437;-67
2021/12/17 15:05:38;;;;;;;;;;;;;;;27.08;55.85;97233.96;607994;233;65297;-68
2021/12/17 15:08:05;;;;;;;;;;;;;;;27.08;56.19;97232.05;608047;233;68351;-67
2021/12/17 15:10:33;;;;;;;;;;;;;;;27.09;56.08;97227.45;608103;233;68470;-68
2021/12/17 15:13:01;;;;;;;;;;;;;;;27.08;55.92;97231.27;608099;233;65139;-68
2021/12/17 15:15:30;;;;;;;;;;;;;;;27.07;56.09;97233.17;608061;233;66132;-65
2021/12/17 15:17:59;;;;;;;;;;;;;;;27.11;56.16;97231.44;608135;233;68445;-68
2021/12/17 15:20:28;;;;;;;;;;;;;;;27.10;55.94;97232.55;608125;233;65434;-68
2021/12/17 15:23:00;;;;;;;;;;;;;;;27.11;56.39;97231.44;608074;233;66291;-65
2021/12/17 15:25:28;;;;;;;;;;;;;;;27.13;56.36;97228.45;608006;233;68186;-68
2021/12/17 15:27:56;;;;;;;;;;;;;;;27.12;56.08;97229.53;608077;233;65046;-66
2021/12/17 15:30:25;;;;;;;;;;;;;;;27.11;56.10;97227.95;608065;233;68282;-70
2021/12/17 15:32:53;;;;;;;;;;;;;;;27.12;55.97;97229.53;608055;233;66718;-70
2021/12/17 15:35:23;;;;;;;;;;;;;;;27.12;55.98;97224.95;608043;233;64940;-71
2021/12/17 15:37:51;;;;;;;;;;;;;;;27.12;55.96;97230.36;607932;233;66346;-70
2021/12/17 15:40:19;;;;;;;;;;;;;;;27.08;55.97;97229.36;608107;233;68526;-66
2021/12/17 15:42:48;;;;;;;;;;;;;;;27.12;56.07;97233.05;608124;233;64884;-64
2021/12/17 15:45:16;;;;;;;;;;;;;;;27.15;55.14;97234.34;608049;233;66448;-61
2021/12/17 15:47:43;;;;;;;;;;;;;;;27.14;54.92;97232.73;608085;233;68654;-63
2021/12/17 15:50:14;;;;;;;;;;;;;;;27.15;54.26;97228.95;608101;233;62975;-63
2021/12/17 15:52:48;;;;;;;;;;;;;;;27.16;54.54;97244.84;608082;233;66398;-66
2021/12/17 15:55:17;;;;;;;;;;;;;;;27.12;57.38;97248.41;608136;233;68778;-64
2021/12/17 15:57:44;;;;;;;;;;;;;;;27.10;54.20;97246.04;607172;233;62768;-63
2021/12/17 16:00:14;;;;;;;;;;;;;;;27.09;53.95;97252.55;604742;234;66828;-64